Shymkent Airport
UAII : now visible

Airfield :











YOU CAN JOIN US ON...

 
LOGIN :

Register | Disclaimer

   EN    FR    IT 

 









Legend :    VFR   Marginal VFR   IFR   Intensive IFR   Very Intensive IFR
Visi :
Ceiling :
>= 8 km
>= 3000ft
5 to 8 km
1000 to 3000 ft
1500m to 5 km
500 to 1000 ft
800 to 1500m
200 to 500 ft
< 800m
< 200 ft
Symbols :   Thunderstorms  Fog  Heavy snow  Heavy precipitations  Wind > 20 kt






- Airport Elevation : 1385 ft
- IATA code : CIT


UAII - Shymkent

CURRENT METAR :
  • 181230Z 36004MPS CAVOK 18/M01 Q1023 R28/0///70 NOSIG RMK QFE730/0973

EXPIRED METARs :
  • 181200Z 01003MPS 340V040 CAVOK 19/00 Q1023 R28/0///70 NOSIG RMK QFE730/0973
  • 181130Z 36004MPS 9999 SCT050CB 19/00 Q1023 R28/0///70 NOSIG RMK QFE730/0973
  • 181100Z 34002MPS 290V050 9999 SCT050CB 18/M00 Q1023 R10/0///70 NOSIG RMK QFE732/0976
  • 181030Z VRB01MPS 9999 SCT050CB 18/M00 Q1023 R10/0///70 NOSIG RMK QFE732/0976
  • 181000Z VRB01MPS 9999 SCT050CB 17/M01 Q1023 R10/0///70 NOSIG RMK QFE732/0976

TAF TAF UAII
Valid from the 18 at 12:00 until the 19 at 12:00 UTC


181101Z 1812/1912 03003G08MPS 6000 SCT050CB BKN100 TX24/1910Z TN07/1901Z
TEMPO 1812/1817 33003G09MPS -SHRA SCT033CB
TEMPO 1817/1904 09003G08MPS 3100 BR SCT007
UAII FIR / Asia



MET'MAP, your aeronautical weather chart ! - Copyright ORBIFLY December 2007 - Disclaimer

ORBIFLY MET'MAP TEAM :

Programming & Development : Alexandra Zaïnal
Concept & original design : Baudouin d'Aumeries
Assistance for programming : Marc-Olivier Méhu
Technical & hardware support : Manuel Goepfert

Contact : metmap@orbifly.com




SOURCES & CREDITS :

   NOAA       Earth
Advisory